createdAt,value
2022-08-28T00:02:15.830Z,23.79
2022-08-28T00:05:20.669Z,23.86
2022-08-28T00:08:23.314Z,23.83
2022-08-28T00:11:25.782Z,23.82
2022-08-28T00:14:28.210Z,23.80
2022-08-28T00:17:30.692Z,23.70
2022-08-28T00:20:34.229Z,23.60
2022-08-28T00:23:42.546Z,23.56
2022-08-28T00:27:04.501Z,23.49
2022-08-28T00:30:08.491Z,23.43
2022-08-28T00:33:13.821Z,23.32
2022-08-28T00:36:16.300Z,23.21
2022-08-28T00:39:18.504Z,23.16
2022-08-28T00:42:21.649Z,23.10
2022-08-28T00:45:27.166Z,23.05
2022-08-28T00:48:29.995Z,22.99
2022-08-28T00:51:52.986Z,22.97
2022-08-28T00:55:04.643Z,22.91
2022-08-28T00:58:06.829Z,22.83
2022-08-28T01:01:09.539Z,22.79
2022-08-28T01:04:17.275Z,22.64
2022-08-28T01:07:22.012Z,22.49
2022-08-28T01:10:26.023Z,22.37
2022-08-28T01:13:30.015Z,22.40
2022-08-28T01:16:34.414Z,22.41
2022-08-28T01:19:43.110Z,22.38
2022-08-28T01:22:59.200Z,22.39
2022-08-28T01:26:01.937Z,22.40
2022-08-28T01:29:11.905Z,22.41
2022-08-28T01:32:14.818Z,22.40
2022-08-28T01:35:20.662Z,22.53
2022-08-28T01:38:26.966Z,22.58
2022-08-28T01:41:29.621Z,22.60
2022-08-28T01:44:32.178Z,22.59
2022-08-28T01:47:34.368Z,22.56
2022-08-28T01:50:37.703Z,22.52
2022-08-28T01:53:41.539Z,22.45
2022-08-28T01:56:47.814Z,22.38
2022-08-28T01:59:51.043Z,22.31
2022-08-28T02:02:56.561Z,22.29
2022-08-28T02:05:59.527Z,22.20
2022-08-28T02:09:02.384Z,22.09
2022-08-28T02:12:05.776Z,22.03
2022-08-28T02:15:08.512Z,21.99
2022-08-28T02:18:12.762Z,21.98
2022-08-28T02:21:15.050Z,21.98
2022-08-28T02:24:17.847Z,21.92
2022-08-28T02:27:20.032Z,21.78
2022-08-28T02:30:23.595Z,21.87
2022-08-28T02:33:26.004Z,21.83
2022-08-28T02:36:28.510Z,21.75
2022-08-28T02:39:31.644Z,21.82
2022-08-28T02:42:34.486Z,21.70
2022-08-28T02:45:37.138Z,21.65
2022-08-28T02:48:40.607Z,21.65
2022-08-28T02:51:42.838Z,21.66
2022-08-28T02:54:46.807Z,21.64
2022-08-28T02:57:49.429Z,21.59
2022-08-28T03:00:52.353Z,21.55
2022-08-28T03:03:54.545Z,21.52
2022-08-28T03:06:58.294Z,21.59
2022-08-28T03:10:01.224Z,21.62
2022-08-28T03:13:06.279Z,21.69
2022-08-28T03:16:08.603Z,21.62
2022-08-28T03:19:11.123Z,21.62
2022-08-28T03:22:13.311Z,21.62
2022-08-28T03:25:17.356Z,21.59
2022-08-28T03:28:19.673Z,21.67
2022-08-28T03:31:24.935Z,21.65
2022-08-28T03:34:27.122Z,21.60
2022-08-28T03:37:29.634Z,21.52
2022-08-28T03:40:32.397Z,21.56
2022-08-28T03:43:34.968Z,21.56
2022-08-28T03:46:37.139Z,21.52
2022-08-28T03:49:39.879Z,21.48
2022-08-28T03:52:42.200Z,21.49
2022-08-28T03:55:44.710Z,21.47
2022-08-28T03:58:47.177Z,21.45
2022-08-28T04:01:49.872Z,21.43
2022-08-28T04:04:52.608Z,21.36
2022-08-28T04:07:54.780Z,21.40
2022-08-28T04:10:59.534Z,21.40
2022-08-28T04:14:01.913Z,21.49
2022-08-28T04:17:05.863Z,21.50
2022-08-28T04:20:10.910Z,21.51
2022-08-28T04:23:13.379Z,21.56
2022-08-28T04:26:18.295Z,21.52
2022-08-28T04:29:23.115Z,21.57
2022-08-28T04:32:25.486Z,21.49
2022-08-28T04:35:29.003Z,21.45
2022-08-28T04:38:31.264Z,21.48
2022-08-28T04:41:36.932Z,21.52
2022-08-28T04:44:39.120Z,21.62
2022-08-28T04:47:41.615Z,21.74
2022-08-28T04:50:46.975Z,21.93
2022-08-28T04:53:49.444Z,22.19
2022-08-28T04:56:51.919Z,22.38
2022-08-28T04:59:55.089Z,22.56
2022-08-28T05:02:57.519Z,22.85
2022-08-28T05:06:03.639Z,23.37
2022-08-28T05:09:05.845Z,24.48
2022-08-28T05:12:08.400Z,25.94
2022-08-28T05:15:10.974Z,26.68
2022-08-28T05:18:15.395Z,27.98
2022-08-28T05:21:21.068Z,29.06
2022-08-28T05:24:23.693Z,29.75
2022-08-28T05:27:26.566Z,30.43
2022-08-28T05:30:29.300Z,31.07
2022-08-28T05:33:31.553Z,31.53
2022-08-28T05:36:37.025Z,32.53
2022-08-28T05:39:39.419Z,33.03
2022-08-28T05:42:41.931Z,33.81
2022-08-28T05:45:44.330Z,34.15
2022-08-28T05:48:48.674Z,33.99
2022-08-28T05:51:51.026Z,34.09
2022-08-28T05:54:53.567Z,34.18
2022-08-28T05:58:15.736Z,34.55
2022-08-28T06:01:27.086Z,34.59
2022-08-28T06:04:29.975Z,35.62
2022-08-28T06:07:33.272Z,36.27
2022-08-28T06:10:42.365Z,36.90
2022-08-28T06:13:46.840Z,37.42
2022-08-28T06:16:52.950Z,38.07
2022-08-28T06:19:55.181Z,38.01
2022-08-28T06:22:57.734Z,38.20
2022-08-28T06:26:00.044Z,38.88
2022-08-28T06:29:07.081Z,38.94
2022-08-28T06:32:09.353Z,39.54
2022-08-28T06:35:12.062Z,39.26
2022-08-28T06:38:17.204Z,39.13
2022-08-28T06:41:19.795Z,39.14
2022-08-28T06:44:22.765Z,39.69
2022-08-28T06:47:25.411Z,39.71
2022-08-28T06:50:27.659Z,39.80
2022-08-28T06:53:30.922Z,41.74
2022-08-28T06:56:33.709Z,41.99
2022-08-28T06:59:36.225Z,42.31
2022-08-28T07:02:38.433Z,41.95
2022-08-28T07:05:41.505Z,42.29
2022-08-28T07:08:44.524Z,42.15
2022-08-28T07:11:47.083Z,42.13
2022-08-28T07:14:49.278Z,41.56
2022-08-28T07:17:51.832Z,42.19
2022-08-28T07:20:59.060Z,42.79
2022-08-28T07:24:03.479Z,41.47
2022-08-28T07:27:05.829Z,39.52
2022-08-28T07:30:10.160Z,37.71
2022-08-28T07:33:12.365Z,36.06
2022-08-28T07:36:29.897Z,35.16
2022-08-28T07:39:33.006Z,35.34
2022-08-28T07:42:54.617Z,35.12
2022-08-28T07:46:03.580Z,35.57
2022-08-28T07:49:07.634Z,35.44
2022-08-28T07:52:11.413Z,34.65
2022-08-28T07:55:13.969Z,33.10
2022-08-28T07:58:16.207Z,32.18
2022-08-28T08:01:19.720Z,31.20
2022-08-28T08:04:24.681Z,31.09
2022-08-28T08:07:26.902Z,31.36
2022-08-28T08:10:33.840Z,31.50
2022-08-28T08:13:38.384Z,31.89
2022-08-28T08:16:44.485Z,32.07
2022-08-28T08:19:46.714Z,31.74
2022-08-28T08:22:49.267Z,32.16
2022-08-28T08:26:00.458Z,32.08
2022-08-28T08:29:02.987Z,32.23
2022-08-28T08:32:11.078Z,32.35
2022-08-28T08:35:13.592Z,32.31
2022-08-28T08:38:18.787Z,32.61
2022-08-28T08:41:43.604Z,32.58
2022-08-28T08:44:49.091Z,32.28
2022-08-28T08:47:52.891Z,32.28
2022-08-28T08:50:59.621Z,32.13
2022-08-28T08:54:31.311Z,32.19
2022-08-28T08:57:36.066Z,32.37
2022-08-28T09:01:09.835Z,32.11
2022-08-28T09:04:40.179Z,31.91
2022-08-28T09:08:16.281Z,31.64
2022-08-28T09:11:46.890Z,31.78
2022-08-28T09:15:42.557Z,31.70
2022-08-28T09:18:50.776Z,31.88
2022-08-28T09:21:54.957Z,31.79
2022-08-28T09:24:57.404Z,31.93
2022-08-28T09:28:09.432Z,32.19
2022-08-28T09:31:19.987Z,31.86
2022-08-28T09:34:38.611Z,31.77
2022-08-28T09:37:42.788Z,31.69
2022-08-28T09:41:04.098Z,31.58
2022-08-28T09:44:06.435Z,31.70
2022-08-28T09:47:09.020Z,31.84
2022-08-28T09:50:28.939Z,31.56
2022-08-28T09:53:38.449Z,31.56
2022-08-28T09:56:42.252Z,31.44
2022-08-28T09:59:44.704Z,31.26
2022-08-28T10:02:58.655Z,31.68
2022-08-28T10:06:11.132Z,31.54
2022-08-28T10:09:25.842Z,31.93
2022-08-28T10:12:59.561Z,31.91
2022-08-28T10:16:37.527Z,31.88
2022-08-28T10:19:53.880Z,31.79
2022-08-28T10:23:17.510Z,31.85
2022-08-28T10:26:30.927Z,31.99
2022-08-28T10:29:51.893Z,32.09
2022-08-28T10:33:24.322Z,32.05
2022-08-28T10:36:34.491Z,32.20
2022-08-28T10:39:55.364Z,32.24
2022-08-28T10:43:16.597Z,32.34
2022-08-28T10:46:29.265Z,32.36
2022-08-28T10:49:41.595Z,32.13
2022-08-28T10:53:32.407Z,31.90
2022-08-28T10:56:43.931Z,31.85
2022-08-28T10:59:50.756Z,31.75
2022-08-28T11:02:58.392Z,31.90
2022-08-28T11:06:14.192Z,32.07
2022-08-28T11:09:39.022Z,32.09
2022-08-28T11:12:43.656Z,32.13
2022-08-28T11:15:52.164Z,32.38
2022-08-28T11:19:14.420Z,32.17
2022-08-28T11:22:24.752Z,32.15
2022-08-28T11:25:41.697Z,32.40
2022-08-28T11:28:47.461Z,32.41
2022-08-28T11:32:29.153Z,32.33
2022-08-28T11:35:44.675Z,32.24
2022-08-28T11:38:56.915Z,32.36
2022-08-28T11:42:11.095Z,32.49
2022-08-28T11:45:42.559Z,32.55
2022-08-28T11:48:54.329Z,32.54
2022-08-28T11:52:34.298Z,32.37
2022-08-28T11:55:50.837Z,32.35
2022-08-28T11:59:35.546Z,32.49
2022-08-28T12:02:42.237Z,32.42
2022-08-28T12:05:48.415Z,32.33
2022-08-28T12:08:53.338Z,32.21
2022-08-28T12:12:05.088Z,32.24
2022-08-28T12:15:08.912Z,32.29
2022-08-28T12:18:11.793Z,32.24
2022-08-28T12:21:21.456Z,32.26
2022-08-28T12:24:25.622Z,32.33
2022-08-28T12:27:29.344Z,32.28
2022-08-28T12:30:54.257Z,32.28
2022-08-28T12:34:06.419Z,32.09
2022-08-28T12:37:52.668Z,32.20
2022-08-28T12:40:55.867Z,32.19
2022-08-28T12:44:00.323Z,32.16
2022-08-28T12:47:02.665Z,32.15
2022-08-28T12:50:25.527Z,32.15
2022-08-28T12:53:44.056Z,32.10
2022-08-28T12:56:46.788Z,32.01
2022-08-28T12:59:52.430Z,32.00
2022-08-28T13:02:56.860Z,32.03
2022-08-28T13:06:06.608Z,32.08
2022-08-28T13:09:18.895Z,31.98
2022-08-28T13:12:54.993Z,31.74
2022-08-28T13:16:02.823Z,31.74
2022-08-28T13:19:04.905Z,31.89
2022-08-28T13:22:33.576Z,31.81
2022-08-28T13:25:37.766Z,31.70
2022-08-28T13:28:43.837Z,31.44
2022-08-28T13:31:56.879Z,31.47
2022-08-28T13:35:31.189Z,31.47
2022-08-28T13:38:35.430Z,31.15
2022-08-28T13:41:38.263Z,31.11
2022-08-28T13:44:50.736Z,31.06
2022-08-28T13:47:53.340Z,31.03
2022-08-28T13:51:05.106Z,31.00
2022-08-28T13:54:10.612Z,30.90
2022-08-28T13:57:15.317Z,30.91
2022-08-28T14:00:18.000Z,31.07
2022-08-28T14:03:37.547Z,31.03
2022-08-28T14:06:44.033Z,30.87
2022-08-28T14:09:46.629Z,30.64
2022-08-28T14:12:49.266Z,30.46
2022-08-28T14:15:52.116Z,30.37
2022-08-28T14:18:54.473Z,30.33
2022-08-28T14:21:57.580Z,30.24
2022-08-28T14:24:59.758Z,30.31
2022-08-28T14:28:03.106Z,30.34
2022-08-28T14:31:11.089Z,30.34
2022-08-28T14:34:18.084Z,30.36
2022-08-28T14:37:21.608Z,30.23
2022-08-28T14:40:24.134Z,30.13
2022-08-28T14:43:28.655Z,30.12
2022-08-28T14:46:35.828Z,30.14
2022-08-28T14:49:39.237Z,30.22
2022-08-28T14:52:41.828Z,30.21
2022-08-28T14:55:46.560Z,30.06
2022-08-28T14:58:49.210Z,29.94
2022-08-28T15:01:52.692Z,29.93
2022-08-28T15:04:55.289Z,29.85
2022-08-28T15:07:57.477Z,29.84
2022-08-28T15:11:09.194Z,29.80
2022-08-28T15:14:12.060Z,29.71
2022-08-28T15:17:14.752Z,29.69
2022-08-28T15:20:17.118Z,29.67
2022-08-28T15:23:19.677Z,29.67
2022-08-28T15:26:23.639Z,29.60
2022-08-28T15:29:27.973Z,29.54
2022-08-28T15:32:30.198Z,29.48
2022-08-28T15:35:34.413Z,29.44
2022-08-28T15:38:55.773Z,29.34
2022-08-28T15:42:00.528Z,29.27
2022-08-28T15:45:02.792Z,29.18
2022-08-28T15:48:05.623Z,29.08
2022-08-28T15:51:08.031Z,29.01
2022-08-28T15:54:10.520Z,28.97
2022-08-28T15:57:12.749Z,28.85
2022-08-28T16:00:16.285Z,28.78
2022-08-28T16:03:18.983Z,28.61
2022-08-28T16:06:21.955Z,28.44
2022-08-28T16:09:24.427Z,28.30
2022-08-28T16:12:28.731Z,28.14
2022-08-28T16:15:31.311Z,28.01
2022-08-28T16:18:34.702Z,27.92
2022-08-28T16:21:37.219Z,27.85
2022-08-28T16:24:39.423Z,27.67
2022-08-28T16:27:41.907Z,27.52
2022-08-28T16:30:44.419Z,27.46
2022-08-28T16:33:47.267Z,27.31
2022-08-28T16:36:50.285Z,27.17
2022-08-28T16:39:54.935Z,27.03
2022-08-28T16:42:57.283Z,26.96
2022-08-28T16:45:59.861Z,26.88
2022-08-28T16:49:02.549Z,26.83
2022-08-28T16:52:05.233Z,26.81
2022-08-28T16:55:09.760Z,26.75
2022-08-28T16:58:16.726Z,26.68
2022-08-28T17:01:21.506Z,26.57
2022-08-28T17:04:26.717Z,26.52
2022-08-28T17:07:30.086Z,26.49
2022-08-28T17:10:34.780Z,26.43
2022-08-28T17:13:37.863Z,26.34
2022-08-28T17:16:40.531Z,26.18
2022-08-28T17:19:42.707Z,26.15
2022-08-28T17:22:45.228Z,26.05
2022-08-28T17:25:47.449Z,25.99
2022-08-28T17:28:51.253Z,25.92
2022-08-28T17:31:53.805Z,25.88
2022-08-28T17:34:56.335Z,25.83
2022-08-28T17:37:58.602Z,25.73
2022-08-28T17:41:01.341Z,25.67
2022-08-28T17:44:05.038Z,25.61
2022-08-28T17:47:07.671Z,25.53
2022-08-28T17:50:10.402Z,25.49
2022-08-28T17:53:13.059Z,25.41
2022-08-28T17:56:15.223Z,25.39
2022-08-28T17:59:18.384Z,25.33
2022-08-28T18:02:20.581Z,25.31
2022-08-28T18:05:23.287Z,25.24
2022-08-28T18:08:25.838Z,25.21
2022-08-28T18:11:29.123Z,25.19
2022-08-28T18:14:31.555Z,25.19
2022-08-28T18:17:36.616Z,25.16
2022-08-28T18:20:42.573Z,25.17
2022-08-28T18:23:45.223Z,25.18
2022-08-28T18:26:48.855Z,25.18
2022-08-28T18:29:52.317Z,25.18
2022-08-28T18:32:54.952Z,25.21
2022-08-28T18:36:00.268Z,25.22
2022-08-28T18:39:02.468Z,25.23
2022-08-28T18:42:05.801Z,25.20
2022-08-28T18:45:08.584Z,25.12
2022-08-28T18:48:11.344Z,25.06
2022-08-28T18:51:14.128Z,25.02
2022-08-28T18:54:18.976Z,25.00
2022-08-28T18:57:21.773Z,24.99
2022-08-28T19:00:28.868Z,24.89
2022-08-28T19:03:31.597Z,24.93
2022-08-28T19:06:35.364Z,24.95
2022-08-28T19:09:38.187Z,25.02
2022-08-28T19:12:40.717Z,25.03
2022-08-28T19:15:42.971Z,24.97
2022-08-28T19:18:46.014Z,24.90
2022-08-28T19:21:50.681Z,24.75
2022-08-28T19:24:53.190Z,24.62
2022-08-28T19:28:06.423Z,24.59
2022-08-28T19:31:09.543Z,24.48
2022-08-28T19:34:12.930Z,24.35
2022-08-28T19:37:16.218Z,24.39
2022-08-28T19:40:18.515Z,24.33
2022-08-28T19:43:21.105Z,24.34
2022-08-28T19:46:23.404Z,24.35
2022-08-28T19:49:25.949Z,24.34
2022-08-28T19:52:28.088Z,24.27
2022-08-28T19:55:31.366Z,24.21
2022-08-28T19:58:34.631Z,24.20
2022-08-28T20:01:40.821Z,24.22
2022-08-28T20:04:43.341Z,24.35
2022-08-28T20:07:45.641Z,24.24
2022-08-28T20:10:49.077Z,24.25
2022-08-28T20:13:56.596Z,24.27
2022-08-28T20:17:00.458Z,24.25
2022-08-28T20:20:03.523Z,24.20
2022-08-28T20:23:06.213Z,24.15
2022-08-28T20:26:10.508Z,24.05
2022-08-28T20:29:14.388Z,23.96
2022-08-28T20:32:16.850Z,23.88
2022-08-28T20:35:22.170Z,23.86
2022-08-28T20:38:26.787Z,23.78
2022-08-28T20:41:29.267Z,23.70
2022-08-28T20:44:31.511Z,23.68
2022-08-28T20:47:34.057Z,23.62
2022-08-28T20:50:36.240Z,23.63
2022-08-28T20:53:39.082Z,23.66
2022-08-28T20:56:42.189Z,23.59
2022-08-28T20:59:46.111Z,23.52
2022-08-28T21:02:48.291Z,23.48
2022-08-28T21:05:50.827Z,23.45
2022-08-28T21:08:53.555Z,23.40
2022-08-28T21:11:56.232Z,23.35
2022-08-28T21:14:58.797Z,23.28
2022-08-28T21:18:02.374Z,23.11
2022-08-28T21:21:07.847Z,23.06
2022-08-28T21:24:14.183Z,23.03
2022-08-28T21:27:16.488Z,22.90
2022-08-28T21:30:22.252Z,22.84
2022-08-28T21:33:24.940Z,22.83
2022-08-28T21:36:27.957Z,22.78
2022-08-28T21:39:30.138Z,22.71
2022-08-28T21:42:32.646Z,22.75
2022-08-28T21:45:34.828Z,22.66
2022-08-28T21:48:37.972Z,22.58
2022-08-28T21:51:40.291Z,22.47
2022-08-28T21:54:44.176Z,22.38
2022-08-28T21:57:46.358Z,22.39
2022-08-28T22:00:52.466Z,22.42
2022-08-28T22:03:55.920Z,22.44
2022-08-28T22:07:01.443Z,22.45
2022-08-28T22:10:04.774Z,22.45
2022-08-28T22:13:08.499Z,22.38
2022-08-28T22:16:11.192Z,22.34
2022-08-28T22:19:13.389Z,22.35
2022-08-28T22:22:36.198Z,22.41
2022-08-28T22:25:41.274Z,22.35
2022-08-28T22:28:43.906Z,22.30
2022-08-28T22:31:46.376Z,22.30
2022-08-28T22:34:49.629Z,22.30
2022-08-28T22:37:51.967Z,22.36
2022-08-28T22:40:54.462Z,22.27
2022-08-28T22:43:56.895Z,22.21
2022-08-28T22:46:59.559Z,22.24
2022-08-28T22:50:04.726Z,22.19
2022-08-28T22:53:07.206Z,22.18
2022-08-28T22:56:11.131Z,22.16
2022-08-28T22:59:14.115Z,22.15
2022-08-28T23:02:18.372Z,22.08
2022-08-28T23:05:21.597Z,22.02
2022-08-28T23:08:23.883Z,21.96
2022-08-28T23:11:26.633Z,21.93
2022-08-28T23:14:28.977Z,21.91
2022-08-28T23:17:31.467Z,21.89
2022-08-28T23:20:34.803Z,21.82
2022-08-28T23:23:37.763Z,21.72
2022-08-28T23:26:40.286Z,21.67
2022-08-28T23:29:43.091Z,21.68
2022-08-28T23:32:45.567Z,21.72
2022-08-28T23:35:48.066Z,21.70
2022-08-28T23:38:50.367Z,21.73
2022-08-28T23:41:54.608Z,21.81
2022-08-28T23:44:56.789Z,21.86
2022-08-28T23:47:59.275Z,21.90
2022-08-28T23:51:02.560Z,21.95
2022-08-28T23:54:06.100Z,21.98
2022-08-28T23:57:08.473Z,21.99
